world map with GPS marked

GPS - Airport

This information may not be accurate or current and is not valid for navigation or flight planning. No warranty of fitness for any purpose is made or implied.

flag of Galápagos Islandsflag of Ecuador

Donate via PayPal

Additional information is available on the NEW Great Circle Mapper

Location
City:  Baltra, Baltra Island, Galápagos Islands, Ecuador
Near (Alt.):Seymour
ICAO / IATA:SEGS / GPS

Details
Type:Airport (Aerodrome, Airfield)
Use:Public/Civil, Military
Latitude:0°27'14"S (-0.453757)
Longitude:90°15'57"W (-90.265913)
Datum:WGS 1984
Elevation:207 ft (63 m)
Runways:1
Longest:7876 × 115 ft (2401 × 35 m)

Time
Timezone:UTC+28:08 (DST+30:08)
Local Time:

Weather
METAR:SEGS  041400Z 07005KT 9999 FEW020 BKN070 27/23 Q1010 A2985

Related Locations
Nearby:
Farthest:WITG: 11974 mi / 19270 km
Sinabang, AC, ID

Find:

   beyond  
but within

Other Information
Maps:
Sources:

  


 


Great Circle Mapper   Great Circle Mapper
Great Circle Mapper FAQ   Great Circle Mapper FAQ
  Karl's Home Page
KLS˛   KLS˛ Home
   GC on Facebook
Airlines of the World   Airlines of the World
Donate via PayPal


Copyright © 2004-2019, Karl L. Swartz. All rights reserved.
All trademarks mentioned herein belong to their respective owners.

Please see credits for attribution and copyright information.

Karl Swartz <karl@kls2.com>
  Powered by FreeBSD
Valid HTML 4.01!
Labeled with ICRA
hCard Microformat
Geo Microformat